createdAt,value
2018-04-14T00:02:07.382Z,28.00
2018-04-14T00:04:33.391Z,28.77
2018-04-14T00:07:00.127Z,28.77
2018-04-14T00:09:26.921Z,28.53
2018-04-14T00:11:52.917Z,30.03
2018-04-14T00:14:18.897Z,29.30
2018-04-14T00:16:45.631Z,31.00
2018-04-14T00:19:14.495Z,29.93
2018-04-14T00:21:40.488Z,29.23
2018-04-14T00:24:06.470Z,27.90
2018-04-14T00:26:32.461Z,29.43
2018-04-14T00:28:58.546Z,29.13
2018-04-14T00:31:25.665Z,29.80
2018-04-14T00:33:52.472Z,29.30
2018-04-14T00:36:19.210Z,29.17
2018-04-14T00:38:45.930Z,29.37
2018-04-14T00:41:11.895Z,28.87
2018-04-14T00:43:37.897Z,30.40
2018-04-14T00:46:04.627Z,29.30
2018-04-14T00:48:31.334Z,28.93
2018-04-14T00:50:57.324Z,29.83
2018-04-14T00:53:35.709Z,28.77
2018-04-14T00:56:01.724Z,28.30
2018-04-14T00:58:27.705Z,28.17
2018-04-14T01:00:53.797Z,28.40
2018-04-14T01:03:19.773Z,29.60
2018-04-14T01:05:46.507Z,28.43
2018-04-14T01:08:13.294Z,30.03
2018-04-14T01:10:39.277Z,29.57
2018-04-14T01:13:05.246Z,29.37
2018-04-14T01:15:31.244Z,29.90
2018-04-14T01:17:57.277Z,30.50
2018-04-14T01:20:25.367Z,28.67
2018-04-14T01:22:51.379Z,29.07
2018-04-14T01:25:17.450Z,32.33
2018-04-14T01:27:43.495Z,31.57
2018-04-14T01:30:09.530Z,31.03
2018-04-14T01:32:35.559Z,29.87
2018-04-14T01:35:01.531Z,31.47
2018-04-14T01:37:27.575Z,31.27
2018-04-14T01:39:53.611Z,30.30
2018-04-14T01:42:19.621Z,31.20
2018-04-14T01:44:45.668Z,31.97
2018-04-14T01:47:11.682Z,30.33
2018-04-14T01:49:37.755Z,32.70
2018-04-14T01:52:03.786Z,30.47
2018-04-14T01:54:29.845Z,33.70
2018-04-14T01:56:55.841Z,31.80
2018-04-14T01:59:21.919Z,32.77
2018-04-14T02:01:47.933Z,33.33
2018-04-14T02:04:14.722Z,32.37
2018-04-14T02:06:40.732Z,34.63
2018-04-14T02:09:08.816Z,35.33
2018-04-14T02:11:34.910Z,33.67
2018-04-14T02:14:00.952Z,34.77
2018-04-14T02:16:26.973Z,31.97
2018-04-14T02:18:53.026Z,35.73
2018-04-14T02:21:21.938Z,33.63
2018-04-14T02:23:47.961Z,33.30
2018-04-14T02:26:13.980Z,34.80
2018-04-14T02:28:39.973Z,35.00
2018-04-14T02:31:06.801Z,36.10
2018-04-14T02:33:32.866Z,34.93
2018-04-14T02:35:58.891Z,34.93
2018-04-14T02:38:25.432Z,36.43
2018-04-14T02:40:51.463Z,35.53
2018-04-14T02:43:17.478Z,34.53
2018-04-14T02:45:43.470Z,37.00
2018-04-14T02:48:09.463Z,34.87
2018-04-14T02:50:36.193Z,36.20
2018-04-14T02:53:02.934Z,35.33
2018-04-14T02:55:29.646Z,36.50
2018-04-14T02:57:55.655Z,34.23
2018-04-14T03:00:21.653Z,35.20
2018-04-14T03:02:47.660Z,36.03
2018-04-14T03:05:13.713Z,35.63
2018-04-14T03:07:39.706Z,35.67
2018-04-14T03:10:05.744Z,34.60
2018-04-14T03:12:31.808Z,34.13
2018-04-14T03:14:57.795Z,34.43
2018-04-14T03:17:23.802Z,36.73
2018-04-14T03:19:49.823Z,33.97
2018-04-14T03:22:15.819Z,35.27
2018-04-14T03:24:41.823Z,35.97
2018-04-14T03:27:08.565Z,35.63
2018-04-14T03:29:34.647Z,35.70
2018-04-14T03:32:00.635Z,33.23
2018-04-14T03:34:26.646Z,35.57
2018-04-14T03:36:52.640Z,35.33
2018-04-14T03:39:19.675Z,35.67
2018-04-14T03:41:46.418Z,35.13
2018-04-14T03:44:12.420Z,34.50
2018-04-14T03:46:39.131Z,34.90
2018-04-14T03:49:05.218Z,33.60
2018-04-14T03:51:31.215Z,35.00
2018-04-14T03:53:57.966Z,35.37
2018-04-14T03:56:23.936Z,34.50
2018-04-14T03:58:49.922Z,35.77
2018-04-14T04:01:15.933Z,35.77
2018-04-14T04:03:41.921Z,36.17
2018-04-14T04:06:07.928Z,33.57
2018-04-14T04:08:35.593Z,33.53
2018-04-14T04:11:02.389Z,36.07
2018-04-14T04:13:28.379Z,33.10
2018-04-14T04:15:54.347Z,35.83
2018-04-14T04:18:32.878Z,34.60
2018-04-14T04:21:11.961Z,34.13
2018-04-14T04:23:50.338Z,33.80
2018-04-14T04:26:16.326Z,33.90
2018-04-14T04:28:43.049Z,33.20
2018-04-14T04:31:09.128Z,34.73
2018-04-14T04:33:35.123Z,35.03
2018-04-14T04:36:01.174Z,34.40
2018-04-14T04:38:27.903Z,34.60
2018-04-14T04:40:53.900Z,34.37
2018-04-14T04:43:20.756Z,33.90
2018-04-14T04:45:47.559Z,33.60
2018-04-14T04:48:14.506Z,33.90
2018-04-14T04:50:41.305Z,33.50
2018-04-14T04:53:07.294Z,34.50
2018-04-14T04:55:33.282Z,34.00
2018-04-14T04:58:06.958Z,34.17
2018-04-14T05:00:33.066Z,34.33
2018-04-14T05:02:59.045Z,33.97
2018-04-14T05:05:25.853Z,33.40
2018-04-14T05:07:52.607Z,33.00
2018-04-14T05:10:19.404Z,35.23
2018-04-14T05:12:45.390Z,33.27
2018-04-14T05:15:11.363Z,35.30
2018-04-14T05:17:38.221Z,32.33
2018-04-14T05:20:05.081Z,33.37
2018-04-14T05:22:31.070Z,34.10
2018-04-14T05:24:57.873Z,33.50
2018-04-14T05:27:23.848Z,31.67
2018-04-14T05:29:49.923Z,33.10
2018-04-14T05:32:15.922Z,33.13
2018-04-14T05:34:45.214Z,33.90
2018-04-14T05:37:11.269Z,32.83
2018-04-14T05:39:37.246Z,32.57
2018-04-14T05:42:03.216Z,33.57
2018-04-14T05:44:29.947Z,31.57
2018-04-14T05:46:55.913Z,32.43
2018-04-14T05:49:21.942Z,34.03
2018-04-14T05:51:47.980Z,32.43
2018-04-14T05:54:13.931Z,32.13
2018-04-14T05:56:40.638Z,32.17
2018-04-14T05:59:06.584Z,32.43
2018-04-14T06:01:33.306Z,32.10
2018-04-14T06:03:59.297Z,32.53
2018-04-14T06:06:25.275Z,32.03
2018-04-14T06:08:51.979Z,30.47
2018-04-14T06:11:17.945Z,32.07
2018-04-14T06:13:43.917Z,29.40
2018-04-14T06:16:09.871Z,30.67
2018-04-14T06:18:35.849Z,29.50
2018-04-14T06:21:01.912Z,30.97
2018-04-14T06:23:27.901Z,28.90
2018-04-14T06:25:54.589Z,30.20
2018-04-14T06:28:20.570Z,29.50
2018-04-14T06:30:46.640Z,29.10
2018-04-14T06:33:12.605Z,29.27
2018-04-14T06:35:39.335Z,29.03
2018-04-14T06:38:06.043Z,29.67
2018-04-14T06:40:32.148Z,30.27
2018-04-14T06:42:58.137Z,30.63
2018-04-14T06:45:24.106Z,30.17
2018-04-14T06:47:50.066Z,30.57
2018-04-14T06:50:16.123Z,30.80
2018-04-14T06:52:42.069Z,30.30
2018-04-14T06:55:08.092Z,30.80
2018-04-14T06:57:34.114Z,28.90
2018-04-14T07:00:01.840Z,29.77
2018-04-14T07:02:27.851Z,29.07
2018-04-14T07:04:54.496Z,30.00
2018-04-14T07:07:21.459Z,30.07
2018-04-14T07:09:48.486Z,29.13
2018-04-14T07:12:14.456Z,30.93
2018-04-14T07:14:41.179Z,30.30
2018-04-14T07:17:07.905Z,30.67
2018-04-14T07:19:33.876Z,29.93
2018-04-14T07:21:59.866Z,30.27
2018-04-14T07:24:26.609Z,29.13
2018-04-14T07:26:52.568Z,30.13
2018-04-14T07:29:19.497Z,29.67
2018-04-14T07:31:45.459Z,29.47
2018-04-14T07:34:13.007Z,29.53
2018-04-14T07:36:39.905Z,31.93
2018-04-14T07:39:05.924Z,30.63
2018-04-14T07:41:33.124Z,29.43
2018-04-14T07:43:59.696Z,31.60
2018-04-14T07:46:25.679Z,31.17
2018-04-14T07:48:53.550Z,29.60
2018-04-14T07:51:20.407Z,30.07
2018-04-14T07:53:47.890Z,30.77
2018-04-14T07:56:13.859Z,32.37
2018-04-14T07:58:41.271Z,33.17
2018-04-14T08:01:08.035Z,32.13
2018-04-14T08:03:34.770Z,30.40
2018-04-14T08:06:00.749Z,31.57
2018-04-14T08:08:26.762Z,31.47
2018-04-14T08:10:52.749Z,30.47
2018-04-14T08:13:19.452Z,29.87
2018-04-14T08:15:45.499Z,30.20
2018-04-14T08:18:13.981Z,32.40
2018-04-14T08:20:40.783Z,30.77
2018-04-14T08:23:06.776Z,30.63
2018-04-14T08:25:32.802Z,29.43
2018-04-14T08:27:58.790Z,27.40
2018-04-14T08:30:24.808Z,28.80
2018-04-14T08:32:57.030Z,27.97
2018-04-14T08:35:23.037Z,27.10
2018-04-14T08:37:49.006Z,28.57
2018-04-14T08:40:15.046Z,29.30
2018-04-14T08:42:41.008Z,28.73
2018-04-14T08:45:07.029Z,28.97
2018-04-14T08:47:32.928Z,28.77
2018-04-14T08:49:58.860Z,28.17
2018-04-14T08:52:24.816Z,29.10
2018-04-14T08:54:50.762Z,30.03
2018-04-14T08:57:16.740Z,29.00
2018-04-14T08:59:43.522Z,30.50
2018-04-14T09:02:09.494Z,30.87
2018-04-14T09:04:36.194Z,31.20
2018-04-14T09:07:02.151Z,32.20
2018-04-14T09:09:28.906Z,30.70
2018-04-14T09:11:54.874Z,30.63
2018-04-14T09:14:21.731Z,29.07
2018-04-14T09:16:47.690Z,28.77
2018-04-14T09:19:13.705Z,28.17
2018-04-14T09:21:39.674Z,29.50
2018-04-14T09:24:05.633Z,31.07
2018-04-14T09:26:31.713Z,32.03
2018-04-14T09:28:58.556Z,31.00
2018-04-14T09:31:24.530Z,29.30
2018-04-14T09:33:50.483Z,29.83
2018-04-14T09:36:16.439Z,31.47
2018-04-14T09:38:42.694Z,26.53
2018-04-14T09:41:09.713Z,25.87
2018-04-14T09:43:36.410Z,22.47
2018-04-14T09:46:02.366Z,25.23
2018-04-14T09:48:29.058Z,26.60
2018-04-14T09:50:55.063Z,26.67
2018-04-14T09:53:21.032Z,25.90
2018-04-14T09:55:47.747Z,27.67
2018-04-14T09:58:13.733Z,25.17
2018-04-14T10:00:45.934Z,23.80
2018-04-14T10:03:17.878Z,25.20
2018-04-14T10:05:43.858Z,26.43
2018-04-14T10:08:09.840Z,28.10
2018-04-14T10:10:36.686Z,25.30
2018-04-14T10:13:02.585Z,27.33
2018-04-14T10:15:28.549Z,25.53
2018-04-14T10:17:54.505Z,26.83
2018-04-14T10:20:20.470Z,26.23
2018-04-14T10:22:46.428Z,25.50
2018-04-14T10:25:12.405Z,27.00
2018-04-14T10:27:38.363Z,30.57
2018-04-14T10:30:04.344Z,30.23
2018-04-14T10:32:30.313Z,28.53
2018-04-14T10:34:56.273Z,30.33
2018-04-14T10:37:22.959Z,28.97
2018-04-14T10:39:49.008Z,28.40
2018-04-14T10:42:14.913Z,25.23
2018-04-14T10:44:40.865Z,24.70
2018-04-14T10:47:07.560Z,26.87
2018-04-14T10:49:33.627Z,26.03
2018-04-14T10:52:00.813Z,25.63
2018-04-14T10:54:26.787Z,25.73
2018-04-14T10:56:53.496Z,24.70
2018-04-14T10:59:19.600Z,22.63
2018-04-14T11:01:45.559Z,21.77
2018-04-14T11:04:11.535Z,22.27
2018-04-14T11:06:37.493Z,22.87
2018-04-14T11:09:04.210Z,24.73
2018-04-14T11:11:30.197Z,23.37
2018-04-14T11:13:56.176Z,24.17
2018-04-14T11:16:22.875Z,24.33
2018-04-14T11:18:48.900Z,24.57
2018-04-14T11:21:14.990Z,23.83
2018-04-14T11:23:40.945Z,21.30
2018-04-14T11:26:06.908Z,19.67
2018-04-14T11:28:32.884Z,19.23
2018-04-14T11:30:58.861Z,20.93
2018-04-14T11:33:24.823Z,20.27
2018-04-14T11:35:50.794Z,21.00
2018-04-14T11:38:16.789Z,19.70
2018-04-14T11:40:42.838Z,19.93
2018-04-14T11:43:08.805Z,21.17
2018-04-14T11:45:34.779Z,21.27
2018-04-14T11:48:00.763Z,20.50
2018-04-14T11:50:27.855Z,17.47
2018-04-14T11:52:53.828Z,19.83
2018-04-14T11:55:19.799Z,20.20
2018-04-14T11:57:45.755Z,20.93
2018-04-14T12:00:12.533Z,19.43
2018-04-14T12:02:38.499Z,19.43
2018-04-14T12:05:05.315Z,19.43
2018-04-14T12:07:31.254Z,18.83
2018-04-14T12:09:57.307Z,18.67
2018-04-14T12:12:23.264Z,18.53
2018-04-14T12:14:49.242Z,19.07
2018-04-14T12:17:15.196Z,18.00
2018-04-14T12:19:41.192Z,18.67
2018-04-14T12:22:07.168Z,18.17
2018-04-14T12:24:33.891Z,17.70
2018-04-14T12:26:59.870Z,19.13
2018-04-14T12:29:25.901Z,20.00
2018-04-14T12:31:51.927Z,19.77
2018-04-14T12:34:17.893Z,19.00
2018-04-14T12:36:44.603Z,20.27
2018-04-14T12:39:10.671Z,20.17
2018-04-14T12:41:36.615Z,20.17
2018-04-14T12:44:02.606Z,20.27
2018-04-14T12:46:28.798Z,20.53
2018-04-14T12:48:54.775Z,20.23
2018-04-14T12:51:20.796Z,20.07
2018-04-14T12:53:46.787Z,20.17
2018-04-14T12:56:12.760Z,19.80
2018-04-14T12:58:38.723Z,21.93
2018-04-14T13:01:04.766Z,22.50
2018-04-14T13:03:30.969Z,22.03
2018-04-14T13:05:56.945Z,21.00
2018-04-14T13:08:22.927Z,21.37
2018-04-14T13:10:48.934Z,21.03
2018-04-14T13:13:14.897Z,21.47
2018-04-14T13:15:42.206Z,21.63
2018-04-14T13:18:08.235Z,21.47
2018-04-14T13:20:34.900Z,21.27
2018-04-14T13:23:02.286Z,20.27
2018-04-14T13:25:28.250Z,20.77
2018-04-14T13:27:55.661Z,19.13
2018-04-14T13:30:25.849Z,18.43
2018-04-14T13:32:57.509Z,17.73
2018-04-14T13:35:24.233Z,18.60
2018-04-14T13:37:50.240Z,19.40
2018-04-14T13:40:18.141Z,23.07
2018-04-14T13:42:44.875Z,22.13
2018-04-14T13:45:11.625Z,19.63
2018-04-14T13:47:37.679Z,19.00
2018-04-14T13:50:04.719Z,18.90
2018-04-14T13:52:30.701Z,18.53
2018-04-14T13:57:30.479Z,19.03
2018-04-14T13:59:56.587Z,20.27
2018-04-14T14:02:23.073Z,19.43
2018-04-14T14:04:52.505Z,19.03
2018-04-14T14:07:18.476Z,18.70
2018-04-14T14:09:45.265Z,18.47
2018-04-14T14:12:11.257Z,18.93
2018-04-14T14:14:37.242Z,19.60
2018-04-14T14:17:13.027Z,18.27
2018-04-14T14:19:39.006Z,17.63
2018-04-14T14:22:05.993Z,17.20
2018-04-14T14:24:31.967Z,18.30
2018-04-14T14:26:57.974Z,20.10
2018-04-14T14:29:23.947Z,20.13
2018-04-14T14:31:53.396Z,18.67
2018-04-14T14:34:22.205Z,18.33
2018-04-14T14:36:50.017Z,18.73
2018-04-14T14:39:16.027Z,17.77
2018-04-14T14:41:42.150Z,17.67
2018-04-14T14:44:08.543Z,17.03
2018-04-14T14:46:37.378Z,16.87
2018-04-14T14:49:03.417Z,17.23
2018-04-14T14:51:29.418Z,16.83
2018-04-14T14:53:55.535Z,16.87
2018-04-14T14:56:21.613Z,17.50
2018-04-14T14:58:47.843Z,21.13
2018-04-14T15:01:14.720Z,21.90
2018-04-14T15:03:40.791Z,20.13
2018-04-14T15:06:07.511Z,22.30
2018-04-14T15:08:40.493Z,22.23
2018-04-14T15:11:07.479Z,23.70
2018-04-14T15:13:33.427Z,21.20
2018-04-14T15:15:59.406Z,20.67
2018-04-14T15:18:25.386Z,21.23
2018-04-14T15:20:51.468Z,21.53
2018-04-14T15:23:17.430Z,21.93
2018-04-14T15:25:43.386Z,20.40
2018-04-14T15:28:09.348Z,20.73
2018-04-14T15:30:35.336Z,19.63
2018-04-14T15:33:01.297Z,20.27
2018-04-14T15:35:27.281Z,19.70
2018-04-14T15:37:53.258Z,19.67
2018-04-14T15:40:20.086Z,20.43
2018-04-14T15:42:46.034Z,20.40
2018-04-14T15:45:12.025Z,20.13
2018-04-14T15:47:38.791Z,20.00
2018-04-14T15:50:04.843Z,18.70
2018-04-14T15:52:30.866Z,19.17
2018-04-14T15:54:57.593Z,20.53
2018-04-14T15:57:23.567Z,23.80
2018-04-14T15:59:50.346Z,22.60
2018-04-14T16:02:16.342Z,22.40
2018-04-14T16:04:42.333Z,22.50
2018-04-14T16:07:09.035Z,21.73
2018-04-14T16:09:35.045Z,21.93
2018-04-14T16:12:02.130Z,22.67
2018-04-14T16:14:28.127Z,24.60
2018-04-14T16:16:54.085Z,23.67
2018-04-14T16:19:20.808Z,23.70
2018-04-14T16:21:47.608Z,24.63
2018-04-14T16:24:13.588Z,24.33
2018-04-14T16:26:40.313Z,27.07
2018-04-14T16:29:07.055Z,27.00
2018-04-14T16:31:33.854Z,26.43
2018-04-14T16:33:59.836Z,27.37
2018-04-14T16:36:25.807Z,27.67
2018-04-14T16:38:52.600Z,25.83
2018-04-14T16:41:18.630Z,29.13
2018-04-14T16:43:44.596Z,25.17
2018-04-14T16:46:11.316Z,26.87
2018-04-14T16:48:39.522Z,22.57
2018-04-14T16:51:07.681Z,23.87
2018-04-14T16:53:35.794Z,26.00
2018-04-14T16:56:03.165Z,25.40
2018-04-14T16:58:29.141Z,25.17
2018-04-14T17:00:56.067Z,22.77
2018-04-14T17:03:22.034Z,23.50
2018-04-14T17:05:47.995Z,21.50
2018-04-14T17:08:14.709Z,21.00
2018-04-14T17:10:40.758Z,21.63
2018-04-14T17:13:07.651Z,20.97
2018-04-14T17:15:36.134Z,20.90
2018-04-14T17:18:02.168Z,20.33
2018-04-14T17:20:28.755Z,26.97
2018-04-14T17:23:04.914Z,24.27
2018-04-14T17:25:31.623Z,32.63
2018-04-14T17:27:58.322Z,24.83
2018-04-14T17:33:05.629Z,21.27
2018-04-14T17:35:31.620Z,21.57
2018-04-14T17:37:57.611Z,21.60
2018-04-14T17:40:23.604Z,35.50
2018-04-14T17:42:50.311Z,22.43
2018-04-14T17:45:16.266Z,18.47
2018-04-14T17:47:42.960Z,19.87
2018-04-14T17:50:09.977Z,18.00
2018-04-14T17:52:35.944Z,19.40
2018-04-14T17:55:02.721Z,18.60
2018-04-14T17:57:28.714Z,19.73
2018-04-14T17:59:55.419Z,18.83
2018-04-14T18:02:21.403Z,17.93
2018-04-14T18:04:47.571Z,17.57
2018-04-14T18:07:17.351Z,17.13
2018-04-14T18:09:43.353Z,17.17
2018-04-14T18:12:09.324Z,17.27
2018-04-14T18:14:36.007Z,19.73
2018-04-14T18:17:03.014Z,17.83
2018-04-14T18:19:29.082Z,16.23
2018-04-14T18:21:55.043Z,15.23
2018-04-14T18:24:21.744Z,15.10
2018-04-14T18:26:47.728Z,15.70
2018-04-14T18:29:13.753Z,17.60
2018-04-14T18:31:39.715Z,15.03
2018-04-14T18:34:05.685Z,14.80
2018-04-14T18:36:31.651Z,13.67
2018-04-14T18:38:57.643Z,14.10
2018-04-14T18:41:24.469Z,13.87
2018-04-14T18:43:50.442Z,14.17
2018-04-14T18:46:16.466Z,14.30
2018-04-14T18:48:44.037Z,14.73
2018-04-14T18:51:10.843Z,15.50
2018-04-14T18:53:36.818Z,15.43
2018-04-14T18:56:02.820Z,15.30
2018-04-14T18:58:28.788Z,16.00
2018-04-14T19:00:54.870Z,17.10
2018-04-14T19:03:20.824Z,16.70
2018-04-14T19:05:46.775Z,18.33
2018-04-14T19:08:13.506Z,18.40
2018-04-14T19:10:39.584Z,19.73
2018-04-14T19:13:07.360Z,18.43
2018-04-14T19:15:33.317Z,18.80
2018-04-14T19:18:00.205Z,20.83
2018-04-14T19:20:26.896Z,21.23
2018-04-14T19:22:53.607Z,20.63
2018-04-14T19:25:19.643Z,20.20
2018-04-14T19:27:46.379Z,19.90
2018-04-14T19:30:13.159Z,21.70
2018-04-14T19:32:39.890Z,21.50
2018-04-14T19:35:07.667Z,21.93
2018-04-14T19:37:33.646Z,22.13
2018-04-14T19:40:01.377Z,22.10
2018-04-14T19:42:28.038Z,21.20
2018-04-14T19:44:54.835Z,22.33
2018-04-14T19:47:20.803Z,22.60
2018-04-14T19:49:47.343Z,21.97
2018-04-14T19:52:13.337Z,22.47
2018-04-14T19:54:40.058Z,21.87
2018-04-14T19:57:06.020Z,23.17
2018-04-14T19:59:32.020Z,21.87
2018-04-14T20:01:58.727Z,22.87
2018-04-14T20:04:24.693Z,21.90
2018-04-14T20:06:50.718Z,23.43
2018-04-14T20:09:16.686Z,22.30
2018-04-14T20:11:45.025Z,22.57
2018-04-14T20:16:42.542Z,23.57
2018-04-14T20:19:09.285Z,22.97
2018-04-14T20:21:36.985Z,22.47
2018-04-14T20:24:03.707Z,23.50
2018-04-14T20:26:29.724Z,22.17
2018-04-14T20:28:55.930Z,22.70
2018-04-14T20:31:23.685Z,21.97
2018-04-14T20:33:50.380Z,23.87
2018-04-14T20:36:17.334Z,24.03
2018-04-14T20:38:43.349Z,23.27
2018-04-14T20:41:09.328Z,24.50
2018-04-14T20:43:35.333Z,24.23
2018-04-14T20:46:01.906Z,24.57
2018-04-14T20:48:27.929Z,25.17
2018-04-14T20:50:53.919Z,27.13
2018-04-14T20:53:20.637Z,24.40
2018-04-14T20:55:47.376Z,25.33
2018-04-14T20:58:14.609Z,25.37
2018-04-14T21:00:41.326Z,24.77
2018-04-14T21:03:07.279Z,25.43
2018-04-14T21:05:33.470Z,25.10
2018-04-14T21:07:59.443Z,26.43
2018-04-14T21:10:25.406Z,25.07
2018-04-14T21:12:51.355Z,26.00
2018-04-14T21:15:18.048Z,26.67
2018-04-14T21:17:46.860Z,25.73
2018-04-14T21:20:13.607Z,27.37
2018-04-14T21:22:40.340Z,26.47
2018-04-14T21:25:07.109Z,27.53
2018-04-14T21:27:33.198Z,26.90
2018-04-14T21:29:59.883Z,26.53
2018-04-14T21:32:25.848Z,27.17
2018-04-14T21:34:59.657Z,26.90
2018-04-14T21:37:26.437Z,27.10
2018-04-14T21:39:52.492Z,26.87
2018-04-14T21:42:18.528Z,28.23
2018-04-14T21:47:25.423Z,26.33
2018-04-14T21:49:52.203Z,27.87
2018-04-14T21:52:19.132Z,27.57
2018-04-14T21:54:45.550Z,28.50
2018-04-14T21:57:11.514Z,25.97
2018-04-14T21:59:38.271Z,27.30
2018-04-14T22:02:04.992Z,27.27
2018-04-14T22:04:30.957Z,27.50
2018-04-14T22:06:56.957Z,27.70
2018-04-14T22:09:23.653Z,27.50
2018-04-14T22:11:49.615Z,28.07
2018-04-14T22:14:28.715Z,27.37
2018-04-14T22:16:54.689Z,28.87
2018-04-14T22:19:20.667Z,28.13
2018-04-14T22:21:47.430Z,27.10
2018-04-14T22:24:13.396Z,27.93
2018-04-14T22:26:39.418Z,28.23
2018-04-14T22:29:05.502Z,29.10
2018-04-14T22:31:31.480Z,28.23
2018-04-14T22:33:58.227Z,29.37
2018-04-14T22:36:24.939Z,28.97
2018-04-14T22:38:50.909Z,29.27
2018-04-14T22:41:16.875Z,30.27
2018-04-14T22:43:42.837Z,29.60
2018-04-14T22:46:08.778Z,29.23
2018-04-14T22:48:34.741Z,30.70
2018-04-14T22:51:01.436Z,30.63
2018-04-14T22:53:28.041Z,30.27
2018-04-14T22:55:54.015Z,31.10
2018-04-14T22:58:20.620Z,30.30
2018-04-14T23:00:46.635Z,30.13
2018-04-14T23:03:12.605Z,30.63
2018-04-14T23:05:39.302Z,29.30
2018-04-14T23:08:05.286Z,30.03
2018-04-14T23:10:31.303Z,31.93
2018-04-14T23:12:57.291Z,29.67
2018-04-14T23:15:23.305Z,30.17
2018-04-14T23:17:49.261Z,29.20
2018-04-14T23:20:15.217Z,31.37
2018-04-14T23:22:41.190Z,31.17
2018-04-14T23:25:07.153Z,30.13
2018-04-14T23:27:33.134Z,30.43
2018-04-14T23:29:59.154Z,30.30
2018-04-14T23:32:25.116Z,30.27
2018-04-14T23:34:51.098Z,30.43
2018-04-14T23:37:17.073Z,30.27
2018-04-14T23:39:43.051Z,29.13
2018-04-14T23:42:09.003Z,32.10
2018-04-14T23:44:34.965Z,31.13
2018-04-14T23:47:00.913Z,31.53
2018-04-14T23:49:26.914Z,31.10
2018-04-14T23:51:52.868Z,29.27
2018-04-14T23:54:18.854Z,30.17
2018-04-14T23:56:44.816Z,31.53
2018-04-14T23:59:10.898Z,31.60
